sensor_id;sensor_type;location;lat;lon;timestamp;P1;durP1;ratioP1;P2;durP2;ratioP2
75220;SDS011;63802;53.232;6.570;2023-08-12T00:00:50;12.05;;;3.60;;
75220;SDS011;63802;53.232;6.570;2023-08-12T00:03:15;9.70;;;3.65;;
75220;SDS011;63802;53.232;6.570;2023-08-12T00:05:41;12.13;;;3.78;;
75220;SDS011;63802;53.232;6.570;2023-08-12T00:08:08;7.03;;;3.42;;
75220;SDS011;63802;53.232;6.570;2023-08-12T00:10:33;8.82;;;2.97;;
75220;SDS011;63802;53.232;6.570;2023-08-12T00:12:59;11.82;;;4.25;;
75220;SDS011;63802;53.232;6.570;2023-08-12T00:15:25;8.50;;;3.17;;
75220;SDS011;63802;53.232;6.570;2023-08-12T00:17:50;7.45;;;3.08;;
75220;SDS011;63802;53.232;6.570;2023-08-12T00:20:17;10.35;;;3.20;;
75220;SDS011;63802;53.232;6.570;2023-08-12T00:22:43;6.82;;;2.80;;
75220;SDS011;63802;53.232;6.570;2023-08-12T00:25:08;9.40;;;2.92;;
75220;SDS011;63802;53.232;6.570;2023-08-12T00:27:34;7.00;;;3.13;;
75220;SDS011;63802;53.232;6.570;2023-08-12T00:29:59;8.07;;;3.00;;
75220;SDS011;63802;53.232;6.570;2023-08-12T00:32:25;9.02;;;3.20;;
75220;SDS011;63802;53.232;6.570;2023-08-12T00:34:51;6.35;;;2.95;;
75220;SDS011;63802;53.232;6.570;2023-08-12T00:37:16;10.40;;;3.20;;
75220;SDS011;63802;53.232;6.570;2023-08-12T00:39:41;5.80;;;2.50;;
75220;SDS011;63802;53.232;6.570;2023-08-12T00:42:07;9.10;;;3.00;;
75220;SDS011;63802;53.232;6.570;2023-08-12T00:44:32;5.78;;;2.63;;
75220;SDS011;63802;53.232;6.570;2023-08-12T00:47:01;8.23;;;3.15;;
75220;SDS011;63802;53.232;6.570;2023-08-12T00:49:27;8.13;;;2.90;;
75220;SDS011;63802;53.232;6.570;2023-08-12T00:51:53;10.15;;;2.38;;
75220;SDS011;63802;53.232;6.570;2023-08-12T00:54:19;9.90;;;2.92;;
75220;SDS011;63802;53.232;6.570;2023-08-12T00:56:48;10.10;;;2.90;;
75220;SDS011;63802;53.232;6.570;2023-08-12T00:59:14;6.22;;;2.40;;
75220;SDS011;63802;53.232;6.570;2023-08-12T01:01:42;5.32;;;2.75;;
75220;SDS011;63802;53.232;6.570;2023-08-12T01:04:09;7.95;;;2.63;;
75220;SDS011;63802;53.232;6.570;2023-08-12T01:06:35;8.23;;;2.50;;
75220;SDS011;63802;53.232;6.570;2023-08-12T01:09:02;5.82;;;2.30;;
75220;SDS011;63802;53.232;6.570;2023-08-12T01:11:44;4.93;;;2.33;;
75220;SDS011;63802;53.232;6.570;2023-08-12T01:14:22;4.72;;;2.25;;
75220;SDS011;63802;53.232;6.570;2023-08-12T01:16:54;7.45;;;2.60;;
75220;SDS011;63802;53.232;6.570;2023-08-12T01:19:29;7.13;;;2.53;;
75220;SDS011;63802;53.232;6.570;2023-08-12T01:22:02;7.72;;;2.70;;
75220;SDS011;63802;53.232;6.570;2023-08-12T01:24:36;4.97;;;2.50;;
75220;SDS011;63802;53.232;6.570;2023-08-12T01:27:02;6.03;;;2.50;;
75220;SDS011;63802;53.232;6.570;2023-08-12T01:29:27;5.10;;;2.47;;
75220;SDS011;63802;53.232;6.570;2023-08-12T01:32:12;6.63;;;2.33;;
75220;SDS011;63802;53.232;6.570;2023-08-12T01:35:30;6.22;;;2.92;;
75220;SDS011;63802;53.232;6.570;2023-08-12T01:37:37;12.40;;;2.95;;
75220;SDS011;63802;53.232;6.570;2023-08-12T01:40:07;9.85;;;3.17;;
75220;SDS011;63802;53.232;6.570;2023-08-12T01:42:34;7.28;;;2.65;;
75220;SDS011;63802;53.232;6.570;2023-08-12T01:45:01;10.13;;;3.35;;
75220;SDS011;63802;53.232;6.570;2023-08-12T01:47:27;9.88;;;3.78;;
75220;SDS011;63802;53.232;6.570;2023-08-12T01:49:53;7.00;;;3.47;;
75220;SDS011;63802;53.232;6.570;2023-08-12T01:52:19;11.13;;;3.67;;
75220;SDS011;63802;53.232;6.570;2023-08-12T01:54:44;10.13;;;3.70;;
75220;SDS011;63802;53.232;6.570;2023-08-12T01:57:10;12.88;;;4.00;;
75220;SDS011;63802;53.232;6.570;2023-08-12T01:59:36;8.65;;;3.88;;
75220;SDS011;63802;53.232;6.570;2023-08-12T02:02:01;8.68;;;3.58;;
75220;SDS011;63802;53.232;6.570;2023-08-12T02:04:27;10.10;;;4.10;;
75220;SDS011;63802;53.232;6.570;2023-08-12T02:06:53;9.77;;;4.00;;
75220;SDS011;63802;53.232;6.570;2023-08-12T02:09:20;8.52;;;3.85;;
75220;SDS011;63802;53.232;6.570;2023-08-12T02:11:45;8.57;;;4.10;;
75220;SDS011;63802;53.232;6.570;2023-08-12T02:14:11;13.63;;;4.20;;
75220;SDS011;63802;53.232;6.570;2023-08-12T02:16:37;9.90;;;4.15;;
75220;SDS011;63802;53.232;6.570;2023-08-12T02:19:02;9.98;;;3.72;;
75220;SDS011;63802;53.232;6.570;2023-08-12T02:21:28;9.70;;;4.30;;
75220;SDS011;63802;53.232;6.570;2023-08-12T02:23:54;11.95;;;4.50;;
75220;SDS011;63802;53.232;6.570;2023-08-12T02:26:22;10.35;;;4.07;;
75220;SDS011;63802;53.232;6.570;2023-08-12T02:28:50;12.77;;;6.45;;
75220;SDS011;63802;53.232;6.570;2023-08-12T02:31:16;11.87;;;4.70;;
75220;SDS011;63802;53.232;6.570;2023-08-12T02:33:42;10.40;;;4.32;;
75220;SDS011;63802;53.232;6.570;2023-08-12T02:36:08;17.67;;;5.05;;
75220;SDS011;63802;53.232;6.570;2023-08-12T02:38:38;13.18;;;4.97;;
75220;SDS011;63802;53.232;6.570;2023-08-12T02:41:03;10.38;;;4.25;;
75220;SDS011;63802;53.232;6.570;2023-08-12T02:43:28;14.60;;;5.03;;
75220;SDS011;63802;53.232;6.570;2023-08-12T02:45:54;12.23;;;4.35;;
75220;SDS011;63802;53.232;6.570;2023-08-12T02:48:20;9.88;;;4.20;;
75220;SDS011;63802;53.232;6.570;2023-08-12T02:50:46;11.10;;;4.63;;
75220;SDS011;63802;53.232;6.570;2023-08-12T02:53:12;10.60;;;4.25;;
75220;SDS011;63802;53.232;6.570;2023-08-12T02:55:37;13.07;;;4.90;;
75220;SDS011;63802;53.232;6.570;2023-08-12T02:58:03;10.77;;;4.78;;
75220;SDS011;63802;53.232;6.570;2023-08-12T03:00:29;12.85;;;4.57;;
75220;SDS011;63802;53.232;6.570;2023-08-12T03:02:55;10.68;;;4.60;;
75220;SDS011;63802;53.232;6.570;2023-08-12T03:05:21;11.73;;;5.07;;
75220;SDS011;63802;53.232;6.570;2023-08-12T03:07:48;14.10;;;5.28;;
75220;SDS011;63802;53.232;6.570;2023-08-12T03:10:16;10.68;;;4.78;;
75220;SDS011;63802;53.232;6.570;2023-08-12T03:12:42;10.80;;;4.80;;
75220;SDS011;63802;53.232;6.570;2023-08-12T03:15:08;11.75;;;4.50;;
75220;SDS011;63802;53.232;6.570;2023-08-12T03:17:34;11.18;;;5.10;;
75220;SDS011;63802;53.232;6.570;2023-08-12T03:20:02;14.32;;;6.20;;
75220;SDS011;63802;53.232;6.570;2023-08-12T03:22:30;12.00;;;5.00;;
75220;SDS011;63802;53.232;6.570;2023-08-12T03:24:56;15.18;;;5.97;;
75220;SDS011;63802;53.232;6.570;2023-08-12T03:27:21;15.15;;;5.55;;
75220;SDS011;63802;53.232;6.570;2023-08-12T03:29:50;14.02;;;5.90;;
75220;SDS011;63802;53.232;6.570;2023-08-12T03:32:15;13.00;;;5.82;;
75220;SDS011;63802;53.232;6.570;2023-08-12T03:34:40;13.25;;;5.88;;
75220;SDS011;63802;53.232;6.570;2023-08-12T03:37:06;15.13;;;6.50;;
75220;SDS011;63802;53.232;6.570;2023-08-12T03:39:31;15.63;;;7.22;;
75220;SDS011;63802;53.232;6.570;2023-08-12T03:41:57;13.20;;;6.15;;
75220;SDS011;63802;53.232;6.570;2023-08-12T03:44:23;15.43;;;5.70;;
75220;SDS011;63802;53.232;6.570;2023-08-12T03:46:49;13.25;;;6.05;;
75220;SDS011;63802;53.232;6.570;2023-08-12T03:49:14;14.50;;;5.75;;
75220;SDS011;63802;53.232;6.570;2023-08-12T03:51:40;15.90;;;6.82;;
75220;SDS011;63802;53.232;6.570;2023-08-12T03:54:05;13.73;;;6.07;;
75220;SDS011;63802;53.232;6.570;2023-08-12T03:56:31;13.07;;;6.55;;
75220;SDS011;63802;53.232;6.570;2023-08-12T03:58:56;14.25;;;6.13;;
75220;SDS011;63802;53.232;6.570;2023-08-12T04:01:22;15.52;;;6.20;;
75220;SDS011;63802;53.232;6.570;2023-08-12T04:03:49;13.07;;;6.18;;
75220;SDS011;63802;53.232;6.570;2023-08-12T04:06:15;12.57;;;6.05;;
75220;SDS011;63802;53.232;6.570;2023-08-12T04:08:40;17.67;;;6.05;;
75220;SDS011;63802;53.232;6.570;2023-08-12T04:11:06;14.93;;;6.18;;
75220;SDS011;63802;53.232;6.570;2023-08-12T04:13:31;13.55;;;6.07;;
75220;SDS011;63802;53.232;6.570;2023-08-12T04:15:57;15.75;;;6.13;;
75220;SDS011;63802;53.232;6.570;2023-08-12T04:18:26;15.25;;;6.72;;
75220;SDS011;63802;53.232;6.570;2023-08-12T04:20:52;14.18;;;6.35;;
75220;SDS011;63802;53.232;6.570;2023-08-12T04:23:18;15.23;;;6.53;;
75220;SDS011;63802;53.232;6.570;2023-08-12T04:25:44;15.38;;;6.57;;
75220;SDS011;63802;53.232;6.570;2023-08-12T04:28:11;14.98;;;7.35;;
75220;SDS011;63802;53.232;6.570;2023-08-12T04:30:41;15.82;;;7.07;;
75220;SDS011;63802;53.232;6.570;2023-08-12T04:33:07;14.63;;;6.78;;
75220;SDS011;63802;53.232;6.570;2023-08-12T04:35:33;15.35;;;7.07;;
75220;SDS011;63802;53.232;6.570;2023-08-12T04:37:59;14.40;;;6.68;;
75220;SDS011;63802;53.232;6.570;2023-08-12T04:40:24;13.15;;;6.53;;
75220;SDS011;63802;53.232;6.570;2023-08-12T04:42:50;17.88;;;6.72;;
75220;SDS011;63802;53.232;6.570;2023-08-12T04:45:16;15.90;;;6.10;;
75220;SDS011;63802;53.232;6.570;2023-08-12T04:47:42;18.20;;;7.38;;
75220;SDS011;63802;53.232;6.570;2023-08-12T04:50:08;16.67;;;7.22;;
75220;SDS011;63802;53.232;6.570;2023-08-12T04:52:34;15.73;;;6.90;;
75220;SDS011;63802;53.232;6.570;2023-08-12T04:55:02;14.57;;;7.03;;
75220;SDS011;63802;53.232;6.570;2023-08-12T04:57:29;17.45;;;7.03;;
75220;SDS011;63802;53.232;6.570;2023-08-12T04:59:55;14.18;;;6.72;;
75220;SDS011;63802;53.232;6.570;2023-08-12T05:02:20;17.33;;;6.47;;
75220;SDS011;63802;53.232;6.570;2023-08-12T05:04:48;15.52;;;6.25;;
75220;SDS011;63802;53.232;6.570;2023-08-12T05:07:16;14.98;;;6.25;;
75220;SDS011;63802;53.232;6.570;2023-08-12T05:09:42;11.98;;;5.53;;
75220;SDS011;63802;53.232;6.570;2023-08-12T05:12:12;14.48;;;6.45;;
75220;SDS011;63802;53.232;6.570;2023-08-12T05:14:38;12.40;;;6.03;;
75220;SDS011;63802;53.232;6.570;2023-08-12T05:17:05;12.60;;;6.03;;
75220;SDS011;63802;53.232;6.570;2023-08-12T05:19:31;17.42;;;6.55;;
75220;SDS011;63802;53.232;6.570;2023-08-12T05:21:57;14.02;;;5.55;;
75220;SDS011;63802;53.232;6.570;2023-08-12T05:24:22;17.00;;;5.97;;
75220;SDS011;63802;53.232;6.570;2023-08-12T05:26:48;13.93;;;5.95;;
75220;SDS011;63802;53.232;6.570;2023-08-12T05:29:13;11.43;;;5.93;;
75220;SDS011;63802;53.232;6.570;2023-08-12T05:31:39;14.40;;;6.13;;
75220;SDS011;63802;53.232;6.570;2023-08-12T05:34:04;12.13;;;5.55;;
75220;SDS011;63802;53.232;6.570;2023-08-12T05:36:30;11.85;;;5.68;;
75220;SDS011;63802;53.232;6.570;2023-08-12T05:38:55;11.98;;;5.60;;
75220;SDS011;63802;53.232;6.570;2023-08-12T05:41:21;13.93;;;5.32;;
75220;SDS011;63802;53.232;6.570;2023-08-12T05:43:47;11.75;;;5.93;;
75220;SDS011;63802;53.232;6.570;2023-08-12T05:46:13;13.95;;;5.40;;
75220;SDS011;63802;53.232;6.570;2023-08-12T05:48:39;13.00;;;5.03;;
75220;SDS011;63802;53.232;6.570;2023-08-12T05:51:04;9.15;;;5.07;;
75220;SDS011;63802;53.232;6.570;2023-08-12T05:53:30;15.55;;;6.00;;
75220;SDS011;63802;53.232;6.570;2023-08-12T05:55:57;12.27;;;5.07;;
75220;SDS011;63802;53.232;6.570;2023-08-12T05:58:32;11.60;;;5.90;;
75220;SDS011;63802;53.232;6.570;2023-08-12T06:00:57;13.73;;;5.50;;
75220;SDS011;63802;53.232;6.570;2023-08-12T06:03:23;15.30;;;6.00;;
75220;SDS011;63802;53.232;6.570;2023-08-12T06:05:49;13.32;;;5.70;;
75220;SDS011;63802;53.232;6.570;2023-08-12T06:08:14;12.85;;;6.25;;
75220;SDS011;63802;53.232;6.570;2023-08-12T06:10:43;11.80;;;5.80;;
75220;SDS011;63802;53.232;6.570;2023-08-12T06:13:09;10.65;;;4.72;;
75220;SDS011;63802;53.232;6.570;2023-08-12T06:15:35;12.23;;;5.60;;
75220;SDS011;63802;53.232;6.570;2023-08-12T06:18:01;12.68;;;5.65;;
75220;SDS011;63802;53.232;6.570;2023-08-12T06:20:27;16.60;;;6.55;;
75220;SDS011;63802;53.232;6.570;2023-08-12T06:22:52;12.13;;;5.43;;
75220;SDS011;63802;53.232;6.570;2023-08-12T06:25:18;16.48;;;6.70;;
75220;SDS011;63802;53.232;6.570;2023-08-12T06:27:45;13.60;;;6.07;;
75220;SDS011;63802;53.232;6.570;2023-08-12T06:30:11;15.23;;;6.55;;
75220;SDS011;63802;53.232;6.570;2023-08-12T06:32:37;12.50;;;5.72;;
75220;SDS011;63802;53.232;6.570;2023-08-12T06:35:04;14.38;;;6.93;;
75220;SDS011;63802;53.232;6.570;2023-08-12T06:37:32;15.90;;;7.05;;
75220;SDS011;63802;53.232;6.570;2023-08-12T06:39:58;17.92;;;6.45;;
75220;SDS011;63802;53.232;6.570;2023-08-12T06:42:24;22.20;;;7.30;;
75220;SDS011;63802;53.232;6.570;2023-08-12T06:44:59;14.13;;;7.20;;
75220;SDS011;63802;53.232;6.570;2023-08-12T06:47:25;14.25;;;6.60;;
75220;SDS011;63802;53.232;6.570;2023-08-12T06:49:52;16.35;;;6.60;;
75220;SDS011;63802;53.232;6.570;2023-08-12T06:52:17;13.45;;;6.63;;
75220;SDS011;63802;53.232;6.570;2023-08-12T06:54:43;13.68;;;7.43;;
75220;SDS011;63802;53.232;6.570;2023-08-12T06:57:08;14.35;;;6.63;;
75220;SDS011;63802;53.232;6.570;2023-08-12T06:59:34;16.90;;;7.18;;
75220;SDS011;63802;53.232;6.570;2023-08-12T07:01:59;16.38;;;7.32;;
75220;SDS011;63802;53.232;6.570;2023-08-12T07:04:25;17.40;;;7.20;;
75220;SDS011;63802;53.232;6.570;2023-08-12T07:06:50;16.70;;;7.10;;
75220;SDS011;63802;53.232;6.570;2023-08-12T07:09:15;13.75;;;7.50;;
75220;SDS011;63802;53.232;6.570;2023-08-12T07:11:41;18.90;;;7.80;;
75220;SDS011;63802;53.232;6.570;2023-08-12T07:14:06;13.55;;;6.00;;
75220;SDS011;63802;53.232;6.570;2023-08-12T07:16:33;16.55;;;7.25;;
75220;SDS011;63802;53.232;6.570;2023-08-12T07:18:58;17.73;;;7.93;;
75220;SDS011;63802;53.232;6.570;2023-08-12T07:21:24;16.85;;;8.07;;
75220;SDS011;63802;53.232;6.570;2023-08-12T07:23:49;17.60;;;8.38;;
75220;SDS011;63802;53.232;6.570;2023-08-12T07:26:15;18.17;;;8.52;;
75220;SDS011;63802;53.232;6.570;2023-08-12T07:28:41;14.73;;;7.20;;
75220;SDS011;63802;53.232;6.570;2023-08-12T07:31:07;18.00;;;8.45;;
75220;SDS011;63802;53.232;6.570;2023-08-12T07:33:32;18.45;;;8.07;;
75220;SDS011;63802;53.232;6.570;2023-08-12T07:35:58;16.63;;;6.97;;
75220;SDS011;63802;53.232;6.570;2023-08-12T07:38:23;22.08;;;8.25;;
75220;SDS011;63802;53.232;6.570;2023-08-12T07:40:49;15.63;;;8.32;;
75220;SDS011;63802;53.232;6.570;2023-08-12T07:43:15;14.18;;;8.07;;
75220;SDS011;63802;53.232;6.570;2023-08-12T07:45:40;17.70;;;7.68;;
75220;SDS011;63802;53.232;6.570;2023-08-12T07:48:06;20.48;;;8.88;;
75220;SDS011;63802;53.232;6.570;2023-08-12T07:50:31;20.23;;;8.07;;
75220;SDS011;63802;53.232;6.570;2023-08-12T07:52:57;17.88;;;8.20;;
75220;SDS011;63802;53.232;6.570;2023-08-12T07:55:23;16.60;;;8.30;;
75220;SDS011;63802;53.232;6.570;2023-08-12T07:57:48;19.95;;;9.55;;
75220;SDS011;63802;53.232;6.570;2023-08-12T08:00:14;23.27;;;9.02;;
75220;SDS011;63802;53.232;6.570;2023-08-12T08:02:40;20.05;;;8.93;;
75220;SDS011;63802;53.232;6.570;2023-08-12T08:05:05;21.08;;;8.93;;
75220;SDS011;63802;53.232;6.570;2023-08-12T08:07:32;21.65;;;9.68;;
75220;SDS011;63802;53.232;6.570;2023-08-12T08:09:57;25.40;;;11.10;;
75220;SDS011;63802;53.232;6.570;2023-08-12T08:12:23;18.58;;;9.75;;
75220;SDS011;63802;53.232;6.570;2023-08-12T08:14:48;22.15;;;9.85;;
75220;SDS011;63802;53.232;6.570;2023-08-12T08:17:14;19.23;;;9.82;;
75220;SDS011;63802;53.232;6.570;2023-08-12T08:19:39;19.98;;;9.80;;
75220;SDS011;63802;53.232;6.570;2023-08-12T08:22:05;21.10;;;10.88;;
75220;SDS011;63802;53.232;6.570;2023-08-12T08:24:31;25.23;;;11.82;;
75220;SDS011;63802;53.232;6.570;2023-08-12T08:26:56;22.75;;;10.85;;
75220;SDS011;63802;53.232;6.570;2023-08-12T08:29:22;20.48;;;10.90;;
75220;SDS011;63802;53.232;6.570;2023-08-12T08:31:48;22.80;;;11.18;;
75220;SDS011;63802;53.232;6.570;2023-08-12T08:34:16;22.75;;;10.82;;
75220;SDS011;63802;53.232;6.570;2023-08-12T08:36:41;23.10;;;10.80;;
75220;SDS011;63802;53.232;6.570;2023-08-12T08:39:08;20.27;;;10.25;;
75220;SDS011;63802;53.232;6.570;2023-08-12T08:41:35;23.70;;;10.55;;
75220;SDS011;63802;53.232;6.570;2023-08-12T08:44:03;19.15;;;10.02;;
75220;SDS011;63802;53.232;6.570;2023-08-12T08:46:33;19.35;;;10.45;;
75220;SDS011;63802;53.232;6.570;2023-08-12T08:48:59;20.30;;;10.50;;
75220;SDS011;63802;53.232;6.570;2023-08-12T08:51:25;19.98;;;10.52;;
75220;SDS011;63802;53.232;6.570;2023-08-12T08:53:54;22.92;;;10.05;;
75220;SDS011;63802;53.232;6.570;2023-08-12T08:56:21;19.27;;;9.80;;
75220;SDS011;63802;53.232;6.570;2023-08-12T08:58:47;19.67;;;10.75;;
75220;SDS011;63802;53.232;6.570;2023-08-12T09:01:12;23.90;;;11.55;;
75220;SDS011;63802;53.232;6.570;2023-08-12T09:03:45;20.63;;;10.63;;
75220;SDS011;63802;53.232;6.570;2023-08-12T09:06:12;22.50;;;10.43;;
75220;SDS011;63802;53.232;6.570;2023-08-12T09:08:38;22.42;;;11.18;;
75220;SDS011;63802;53.232;6.570;2023-08-12T09:11:09;23.75;;;11.90;;
75220;SDS011;63802;53.232;6.570;2023-08-12T09:13:37;25.80;;;11.13;;
75220;SDS011;63802;53.232;6.570;2023-08-12T09:16:03;27.98;;;11.88;;
75220;SDS011;63802;53.232;6.570;2023-08-12T09:18:29;26.27;;;12.15;;
75220;SDS011;63802;53.232;6.570;2023-08-12T09:20:56;26.50;;;12.93;;
75220;SDS011;63802;53.232;6.570;2023-08-12T09:23:22;23.65;;;12.18;;
75220;SDS011;63802;53.232;6.570;2023-08-12T09:25:48;28.77;;;13.23;;
75220;SDS011;63802;53.232;6.570;2023-08-12T09:28:13;27.67;;;13.43;;
75220;SDS011;63802;53.232;6.570;2023-08-12T09:30:39;31.05;;;15.77;;
75220;SDS011;63802;53.232;6.570;2023-08-12T09:33:05;27.98;;;13.52;;
75220;SDS011;63802;53.232;6.570;2023-08-12T09:38:00;30.80;;;14.25;;
75220;SDS011;63802;53.232;6.570;2023-08-12T09:40:27;33.33;;;15.88;;
75220;SDS011;63802;53.232;6.570;2023-08-12T09:42:53;30.95;;;15.55;;
75220;SDS011;63802;53.232;6.570;2023-08-12T09:45:19;27.17;;;14.20;;
75220;SDS011;63802;53.232;6.570;2023-08-12T09:50:13;34.80;;;14.65;;
75220;SDS011;63802;53.232;6.570;2023-08-12T09:52:39;32.17;;;15.40;;
75220;SDS011;63802;53.232;6.570;2023-08-12T09:55:05;25.63;;;12.77;;
75220;SDS011;63802;53.232;6.570;2023-08-12T09:57:33;32.45;;;15.63;;
75220;SDS011;63802;53.232;6.570;2023-08-12T10:00:06;26.95;;;15.10;;
75220;SDS011;63802;53.232;6.570;2023-08-12T10:02:43;24.23;;;12.93;;
75220;SDS011;63802;53.232;6.570;2023-08-12T10:05:11;25.77;;;13.35;;
75220;SDS011;63802;53.232;6.570;2023-08-12T10:07:41;31.88;;;14.98;;
75220;SDS011;63802;53.232;6.570;2023-08-12T10:10:09;28.25;;;15.65;;
75220;SDS011;63802;53.232;6.570;2023-08-12T10:12:34;29.92;;;16.05;;
75220;SDS011;63802;53.232;6.570;2023-08-12T10:15:05;26.13;;;13.95;;
75220;SDS011;63802;53.232;6.570;2023-08-12T10:17:32;28.23;;;13.75;;
75220;SDS011;63802;53.232;6.570;2023-08-12T10:19:58;29.95;;;14.40;;
75220;SDS011;63802;53.232;6.570;2023-08-12T10:22:28;29.80;;;15.15;;
75220;SDS011;63802;53.232;6.570;2023-08-12T10:24:54;26.15;;;13.57;;
75220;SDS011;63802;53.232;6.570;2023-08-12T10:27:23;27.27;;;14.43;;
75220;SDS011;63802;53.232;6.570;2023-08-12T10:29:50;26.40;;;14.70;;
75220;SDS011;63802;53.232;6.570;2023-08-12T10:32:15;29.17;;;13.65;;
75220;SDS011;63802;53.232;6.570;2023-08-12T10:34:41;27.17;;;13.20;;
75220;SDS011;63802;53.232;6.570;2023-08-12T10:37:08;26.70;;;14.35;;
75220;SDS011;63802;53.232;6.570;2023-08-12T10:39:35;22.98;;;11.98;;
75220;SDS011;63802;53.232;6.570;2023-08-12T10:42:02;22.60;;;11.68;;
75220;SDS011;63802;53.232;6.570;2023-08-12T10:47:15;19.55;;;8.93;;
75220;SDS011;63802;53.232;6.570;2023-08-12T10:49:47;17.50;;;9.20;;
75220;SDS011;63802;53.232;6.570;2023-08-12T10:52:36;17.20;;;9.23;;
75220;SDS011;63802;53.232;6.570;2023-08-12T10:55:16;18.75;;;10.43;;
75220;SDS011;63802;53.232;6.570;2023-08-12T10:57:54;19.65;;;9.57;;
75220;SDS011;63802;53.232;6.570;2023-08-12T11:00:23;17.20;;;8.35;;
75220;SDS011;63802;53.232;6.570;2023-08-12T11:02:51;10.00;;;5.45;;
75220;SDS011;63802;53.232;6.570;2023-08-12T11:05:19;13.25;;;4.60;;
75220;SDS011;63802;53.232;6.570;2023-08-12T11:07:46;8.88;;;4.35;;
75220;SDS011;63802;53.232;6.570;2023-08-12T11:10:27;9.98;;;4.85;;
75220;SDS011;63802;53.232;6.570;2023-08-12T11:12:56;10.82;;;4.82;;
75220;SDS011;63802;53.232;6.570;2023-08-12T11:15:29;9.65;;;5.13;;
75220;SDS011;63802;53.232;6.570;2023-08-12T11:18:03;6.88;;;3.95;;
75220;SDS011;63802;53.232;6.570;2023-08-12T11:20:30;6.57;;;3.70;;
75220;SDS011;63802;53.232;6.570;2023-08-12T11:22:56;7.03;;;3.80;;
75220;SDS011;63802;53.232;6.570;2023-08-12T11:25:25;8.07;;;3.90;;
75220;SDS011;63802;53.232;6.570;2023-08-12T11:27:52;7.75;;;3.50;;
75220;SDS011;63802;53.232;6.570;2023-08-12T11:30:19;7.13;;;3.88;;
75220;SDS011;63802;53.232;6.570;2023-08-12T11:32:47;6.45;;;3.67;;
75220;SDS011;63802;53.232;6.570;2023-08-12T11:35:14;7.78;;;3.80;;
75220;SDS011;63802;53.232;6.570;2023-08-12T11:37:41;6.03;;;3.70;;
75220;SDS011;63802;53.232;6.570;2023-08-12T11:40:09;6.90;;;3.60;;
75220;SDS011;63802;53.232;6.570;2023-08-12T11:42:36;7.43;;;3.60;;
75220;SDS011;63802;53.232;6.570;2023-08-12T11:45:05;5.40;;;2.92;;
75220;SDS011;63802;53.232;6.570;2023-08-12T11:47:32;6.65;;;3.58;;
75220;SDS011;63802;53.232;6.570;2023-08-12T11:49:57;4.85;;;2.97;;
75220;SDS011;63802;53.232;6.570;2023-08-12T11:52:25;5.25;;;3.03;;
75220;SDS011;63802;53.232;6.570;2023-08-12T11:54:51;6.82;;;2.80;;
75220;SDS011;63802;53.232;6.570;2023-08-12T11:57:18;3.50;;;2.05;;
75220;SDS011;63802;53.232;6.570;2023-08-12T11:59:43;3.55;;;1.85;;
75220;SDS011;63802;53.232;6.570;2023-08-12T12:02:09;5.80;;;2.50;;
75220;SDS011;63802;53.232;6.570;2023-08-12T12:04:35;7.45;;;3.00;;
75220;SDS011;63802;53.232;6.570;2023-08-12T12:07:01;8.50;;;2.92;;
75220;SDS011;63802;53.232;6.570;2023-08-12T12:09:31;9.38;;;2.88;;
75220;SDS011;63802;53.232;6.570;2023-08-12T12:11:57;8.25;;;3.20;;
75220;SDS011;63802;53.232;6.570;2023-08-12T12:14:24;5.95;;;2.90;;
75220;SDS011;63802;53.232;6.570;2023-08-12T12:16:52;8.07;;;2.75;;
75220;SDS011;63802;53.232;6.570;2023-08-12T12:19:18;8.98;;;2.85;;
75220;SDS011;63802;53.232;6.570;2023-08-12T12:21:50;6.18;;;2.85;;
75220;SDS011;63802;53.232;6.570;2023-08-12T12:24:17;7.22;;;2.50;;
75220;SDS011;63802;53.232;6.570;2023-08-12T12:26:44;6.68;;;2.75;;
75220;SDS011;63802;53.232;6.570;2023-08-12T12:29:10;7.68;;;2.50;;
75220;SDS011;63802;53.232;6.570;2023-08-12T12:31:39;4.53;;;2.20;;
75220;SDS011;63802;53.232;6.570;2023-08-12T12:34:06;5.95;;;2.33;;
75220;SDS011;63802;53.232;6.570;2023-08-12T12:36:36;6.32;;;2.20;;
75220;SDS011;63802;53.232;6.570;2023-08-12T12:39:05;5.05;;;2.13;;
75220;SDS011;63802;53.232;6.570;2023-08-12T12:41:30;6.18;;;2.42;;
75220;SDS011;63802;53.232;6.570;2023-08-12T12:43:56;9.75;;;3.28;;
75220;SDS011;63802;53.232;6.570;2023-08-12T12:46:22;5.78;;;2.50;;
75220;SDS011;63802;53.232;6.570;2023-08-12T12:48:47;6.93;;;2.75;;
75220;SDS011;63802;53.232;6.570;2023-08-12T12:51:13;6.05;;;2.60;;
75220;SDS011;63802;53.232;6.570;2023-08-12T12:53:39;18.95;;;2.72;;
75220;SDS011;63802;53.232;6.570;2023-08-12T12:56:05;8.85;;;2.13;;
75220;SDS011;63802;53.232;6.570;2023-08-12T12:58:35;5.25;;;1.90;;
75220;SDS011;63802;53.232;6.570;2023-08-12T13:01:01;5.10;;;1.83;;
75220;SDS011;63802;53.232;6.570;2023-08-12T13:03:29;7.55;;;2.03;;
75220;SDS011;63802;53.232;6.570;2023-08-12T13:05:55;4.60;;;2.10;;
75220;SDS011;63802;53.232;6.570;2023-08-12T13:08:21;6.60;;;2.08;;
75220;SDS011;63802;53.232;6.570;2023-08-12T13:10:47;5.30;;;2.10;;
75220;SDS011;63802;53.232;6.570;2023-08-12T13:13:13;7.25;;;2.53;;
75220;SDS011;63802;53.232;6.570;2023-08-12T13:15:43;7.50;;;2.10;;
75220;SDS011;63802;53.232;6.570;2023-08-12T13:18:09;6.13;;;2.28;;
75220;SDS011;63802;53.232;6.570;2023-08-12T13:20:38;6.95;;;2.40;;
75220;SDS011;63802;53.232;6.570;2023-08-12T13:23:04;5.18;;;2.20;;
75220;SDS011;63802;53.232;6.570;2023-08-12T13:25:30;8.75;;;2.17;;
75220;SDS011;63802;53.232;6.570;2023-08-12T13:28:01;9.23;;;2.45;;
75220;SDS011;63802;53.232;6.570;2023-08-12T13:30:28;3.63;;;1.83;;
75220;SDS011;63802;53.232;6.570;2023-08-12T13:32:54;6.95;;;2.33;;
75220;SDS011;63802;53.232;6.570;2023-08-12T13:35:21;6.38;;;3.00;;
75220;SDS011;63802;53.232;6.570;2023-08-12T13:37:47;9.05;;;2.13;;
75220;SDS011;63802;53.232;6.570;2023-08-12T13:40:14;7.28;;;2.38;;
75220;SDS011;63802;53.232;6.570;2023-08-12T13:42:40;9.48;;;2.40;;
75220;SDS011;63802;53.232;6.570;2023-08-12T13:45:06;7.07;;;2.40;;
75220;SDS011;63802;53.232;6.570;2023-08-12T13:47:33;6.13;;;2.22;;
75220;SDS011;63802;53.232;6.570;2023-08-12T13:49:59;7.88;;;2.55;;
75220;SDS011;63802;53.232;6.570;2023-08-12T13:52:25;11.32;;;2.95;;
75220;SDS011;63802;53.232;6.570;2023-08-12T13:54:51;10.18;;;2.88;;
75220;SDS011;63802;53.232;6.570;2023-08-12T13:57:16;7.15;;;2.75;;
75220;SDS011;63802;53.232;6.570;2023-08-12T13:59:42;8.23;;;2.60;;
75220;SDS011;63802;53.232;6.570;2023-08-12T14:02:09;7.10;;;2.33;;
75220;SDS011;63802;53.232;6.570;2023-08-12T14:04:35;9.50;;;2.78;;
75220;SDS011;63802;53.232;6.570;2023-08-12T14:07:00;8.35;;;3.10;;
75220;SDS011;63802;53.232;6.570;2023-08-12T14:09:26;7.18;;;2.85;;
75220;SDS011;63802;53.232;6.570;2023-08-12T14:11:51;8.18;;;3.00;;
75220;SDS011;63802;53.232;6.570;2023-08-12T14:14:17;9.55;;;2.75;;
75220;SDS011;63802;53.232;6.570;2023-08-12T14:16:43;8.38;;;2.65;;
75220;SDS011;63802;53.232;6.570;2023-08-12T14:19:08;9.75;;;2.17;;
75220;SDS011;63802;53.232;6.570;2023-08-12T14:21:33;9.63;;;2.53;;
75220;SDS011;63802;53.232;6.570;2023-08-12T14:23:59;5.40;;;1.70;;
75220;SDS011;63802;53.232;6.570;2023-08-12T14:26:28;6.30;;;1.83;;
75220;SDS011;63802;53.232;6.570;2023-08-12T14:28:53;9.13;;;2.10;;
75220;SDS011;63802;53.232;6.570;2023-08-12T14:31:18;5.50;;;1.80;;
75220;SDS011;63802;53.232;6.570;2023-08-12T14:33:44;7.78;;;2.00;;
75220;SDS011;63802;53.232;6.570;2023-08-12T14:36:09;9.63;;;1.92;;
75220;SDS011;63802;53.232;6.570;2023-08-12T14:38:35;7.85;;;1.85;;
75220;SDS011;63802;53.232;6.570;2023-08-12T14:41:00;8.73;;;2.00;;
75220;SDS011;63802;53.232;6.570;2023-08-12T14:43:29;7.63;;;1.75;;